sensor_id;sensor_type;location;lat;lon;timestamp;pressure;altitude;pressure_sealevel;temperature;humidity
49377;BME280;35253;34.688;33.040;2022-08-03T00:01:33;100055.88;;;28.80;100.00
49377;BME280;35253;34.688;33.040;2022-08-03T00:03:58;100059.06;;;28.77;100.00
49377;BME280;35253;34.688;33.040;2022-08-03T00:06:24;100062.72;;;28.64;100.00
49377;BME280;35253;34.688;33.040;2022-08-03T00:08:50;100067.66;;;28.56;100.00
49377;BME280;35253;34.688;33.040;2022-08-03T00:11:16;100070.56;;;28.30;100.00
49377;BME280;35253;34.688;33.040;2022-08-03T00:13:42;100070.84;;;28.08;100.00
49377;BME280;35253;34.688;33.040;2022-08-03T00:16:08;100076.78;;;28.05;100.00
49377;BME280;35253;34.688;33.040;2022-08-03T00:18:35;100074.63;;;28.20;100.00
49377;BME280;35253;34.688;33.040;2022-08-03T00:21:01;100072.59;;;28.03;100.00
49377;BME280;35253;34.688;33.040;2022-08-03T00:23:27;100078.25;;;28.08;100.00
49377;BME280;35253;34.688;33.040;2022-08-03T00:25:53;100083.50;;;28.16;100.00
49377;BME280;35253;34.688;33.040;2022-08-03T00:28:20;100077.19;;;28.15;100.00
49377;BME280;35253;34.688;33.040;2022-08-03T00:30:46;100075.50;;;28.08;100.00
49377;BME280;35253;34.688;33.040;2022-08-03T00:33:11;100083.53;;;28.03;100.00
49377;BME280;35253;34.688;33.040;2022-08-03T00:35:37;100089.47;;;27.93;100.00
49377;BME280;35253;34.688;33.040;2022-08-03T00:38:03;100085.31;;;27.84;100.00
49377;BME280;35253;34.688;33.040;2022-08-03T00:40:29;100085.31;;;27.84;100.00
49377;BME280;35253;34.688;33.040;2022-08-03T00:42:56;100083.88;;;27.75;100.00
49377;BME280;35253;34.688;33.040;2022-08-03T00:45:25;100100.09;;;27.70;100.00
49377;BME280;35253;34.688;33.040;2022-08-03T00:47:52;100083.66;;;27.70;100.00
49377;BME280;35253;34.688;33.040;2022-08-03T00:50:19;100080.72;;;27.71;100.00
49377;BME280;35253;34.688;33.040;2022-08-03T00:52:48;100082.78;;;27.83;100.00
49377;BME280;35253;34.688;33.040;2022-08-03T00:55:14;100083.63;;;27.83;100.00
49377;BME280;35253;34.688;33.040;2022-08-03T00:57:41;100089.13;;;27.70;100.00
49377;BME280;35253;34.688;33.040;2022-08-03T01:00:10;100090.88;;;27.58;100.00
49377;BME280;35253;34.688;33.040;2022-08-03T01:02:37;100081.59;;;27.59;100.00
49377;BME280;35253;34.688;33.040;2022-08-03T01:05:03;100089.38;;;27.62;100.00
49377;BME280;35253;34.688;33.040;2022-08-03T01:07:41;100086.88;;;27.54;100.00
49377;BME280;35253;34.688;33.040;2022-08-03T01:13:22;100094.47;;;27.52;100.00
49377;BME280;35253;34.688;33.040;2022-08-03T01:15:58;100092.16;;;27.55;100.00
49377;BME280;35253;34.688;33.040;2022-08-03T01:18:50;100094.66;;;27.57;100.00
49377;BME280;35253;34.688;33.040;2022-08-03T01:21:26;100084.50;;;27.77;100.00
49377;BME280;35253;34.688;33.040;2022-08-03T01:24:16;100087.84;;;27.79;100.00
49377;BME280;35253;34.688;33.040;2022-08-03T01:27:02;100075.56;;;27.95;100.00
49377;BME280;35253;34.688;33.040;2022-08-03T01:32:14;100072.66;;;27.83;100.00
49377;BME280;35253;34.688;33.040;2022-08-03T01:34:42;100071.78;;;27.89;100.00
49377;BME280;35253;34.688;33.040;2022-08-03T01:37:11;100071.16;;;27.87;100.00
49377;BME280;35253;34.688;33.040;2022-08-03T01:39:41;100069.25;;;27.88;100.00
49377;BME280;35253;34.688;33.040;2022-08-03T01:42:10;100073.25;;;27.98;100.00
49377;BME280;35253;34.688;33.040;2022-08-03T01:44:40;100075.28;;;28.09;100.00
49377;BME280;35253;34.688;33.040;2022-08-03T01:47:07;100066.00;;;28.17;100.00
49377;BME280;35253;34.688;33.040;2022-08-03T01:49:38;100063.66;;;28.20;100.00
49377;BME280;35253;34.688;33.040;2022-08-03T01:52:05;100063.66;;;28.20;100.00
49377;BME280;35253;34.688;33.040;2022-08-03T01:54:39;100062.75;;;28.27;100.00
49377;BME280;35253;34.688;33.040;2022-08-03T01:57:07;100069.47;;;28.31;100.00
49377;BME280;35253;34.688;33.040;2022-08-03T01:59:34;100073.72;;;28.27;100.00
49377;BME280;35253;34.688;33.040;2022-08-03T02:02:02;100063.72;;;28.07;100.00
49377;BME280;35253;34.688;33.040;2022-08-03T02:04:29;100072.31;;;28.17;100.00
49377;BME280;35253;34.688;33.040;2022-08-03T02:06:56;100064.75;;;28.06;100.00
49377;BME280;35253;34.688;33.040;2022-08-03T02:09:23;100060.56;;;28.10;100.00
49377;BME280;35253;34.688;33.040;2022-08-03T02:11:50;100073.53;;;28.21;100.00
49377;BME280;35253;34.688;33.040;2022-08-03T02:14:18;100078.16;;;28.28;100.00
49377;BME280;35253;34.688;33.040;2022-08-03T02:16:44;100074.56;;;28.34;100.00
49377;BME280;35253;34.688;33.040;2022-08-03T02:19:10;100075.78;;;28.38;100.00
49377;BME280;35253;34.688;33.040;2022-08-03T02:21:36;100072.03;;;28.32;100.00
49377;BME280;35253;34.688;33.040;2022-08-03T02:24:04;100067.66;;;28.25;100.00
49377;BME280;35253;34.688;33.040;2022-08-03T02:26:31;100069.28;;;28.32;100.00
49377;BME280;35253;34.688;33.040;2022-08-03T02:29:02;100077.69;;;28.37;100.00
49377;BME280;35253;34.688;33.040;2022-08-03T02:31:32;100074.88;;;28.44;100.00
49377;BME280;35253;34.688;33.040;2022-08-03T02:34:05;100076.38;;;28.40;100.00
49377;BME280;35253;34.688;33.040;2022-08-03T02:36:35;100075.34;;;28.41;100.00
49377;BME280;35253;34.688;33.040;2022-08-03T02:39:05;100079.13;;;28.40;100.00
49377;BME280;35253;34.688;33.040;2022-08-03T02:41:37;100079.94;;;28.47;100.00
49377;BME280;35253;34.688;33.040;2022-08-03T02:44:08;100082.44;;;28.48;100.00
49377;BME280;35253;34.688;33.040;2022-08-03T02:46:37;100082.88;;;28.52;100.00
49377;BME280;35253;34.688;33.040;2022-08-03T02:49:04;100079.03;;;28.53;100.00
49377;BME280;35253;34.688;33.040;2022-08-03T02:51:32;100078.63;;;28.56;100.00
49377;BME280;35253;34.688;33.040;2022-08-03T02:54:01;100082.81;;;28.58;100.00
49377;BME280;35253;34.688;33.040;2022-08-03T02:56:27;100079.84;;;28.60;100.00
49377;BME280;35253;34.688;33.040;2022-08-03T02:58:55;100074.97;;;28.62;100.00
49377;BME280;35253;34.688;33.040;2022-08-03T03:01:23;100086.78;;;28.62;100.00
49377;BME280;35253;34.688;33.040;2022-08-03T03:03:51;100094.16;;;28.62;100.00
49377;BME280;35253;34.688;33.040;2022-08-03T03:06:18;100086.56;;;28.64;100.00
49377;BME280;35253;34.688;33.040;2022-08-03T03:08:45;100081.28;;;28.69;100.00
49377;BME280;35253;34.688;33.040;2022-08-03T03:11:13;100093.28;;;28.68;100.00
49377;BME280;35253;34.688;33.040;2022-08-03T03:13:42;100087.63;;;28.63;100.00
49377;BME280;35253;34.688;33.040;2022-08-03T03:16:09;100096.31;;;28.60;100.00
49377;BME280;35253;34.688;33.040;2022-08-03T03:18:37;100096.72;;;28.63;100.00
49377;BME280;35253;34.688;33.040;2022-08-03T03:21:03;100097.81;;;28.56;100.00
49377;BME280;35253;34.688;33.040;2022-08-03T03:23:31;100095.59;;;28.40;100.00
49377;BME280;35253;34.688;33.040;2022-08-03T03:25:59;100103.53;;;28.16;100.00
49377;BME280;35253;34.688;33.040;2022-08-03T03:28:27;100104.63;;;27.96;100.00
49377;BME280;35253;34.688;33.040;2022-08-03T03:30:52;100116.03;;;27.99;100.00
49377;BME280;35253;34.688;33.040;2022-08-03T03:33:19;100116.50;;;27.83;100.00
49377;BME280;35253;34.688;33.040;2022-08-03T03:35:46;100118.81;;;27.86;100.00
49377;BME280;35253;34.688;33.040;2022-08-03T03:38:12;100113.09;;;27.94;100.00
49377;BME280;35253;34.688;33.040;2022-08-03T03:40:38;100127.00;;;27.93;100.00
49377;BME280;35253;34.688;33.040;2022-08-03T03:43:07;100127.44;;;27.83;100.00
49377;BME280;35253;34.688;33.040;2022-08-03T03:45:34;100119.91;;;27.72;100.00
49377;BME280;35253;34.688;33.040;2022-08-03T03:48:01;100121.00;;;27.64;100.00
49377;BME280;35253;34.688;33.040;2022-08-03T03:50:29;100122.88;;;27.64;100.00
49377;BME280;35253;34.688;33.040;2022-08-03T03:52:57;100135.50;;;27.71;100.00
49377;BME280;35253;34.688;33.040;2022-08-03T03:55:23;100132.16;;;27.56;100.00
49377;BME280;35253;34.688;33.040;2022-08-03T03:57:49;100129.19;;;27.71;100.00
49377;BME280;35253;34.688;33.040;2022-08-03T04:00:16;100131.69;;;27.79;100.00
49377;BME280;35253;34.688;33.040;2022-08-03T04:02:43;100121.38;;;27.81;100.00
49377;BME280;35253;34.688;33.040;2022-08-03T04:05:08;100121.16;;;27.69;100.00
49377;BME280;35253;34.688;33.040;2022-08-03T04:08:02;100123.25;;;27.81;100.00
49377;BME280;35253;34.688;33.040;2022-08-03T04:11:09;100116.03;;;27.99;100.00
49377;BME280;35253;34.688;33.040;2022-08-03T04:13:39;100116.81;;;28.19;100.00
49377;BME280;35253;34.688;33.040;2022-08-03T04:16:11;100113.00;;;28.20;100.00
49377;BME280;35253;34.688;33.040;2022-08-03T04:18:40;100114.38;;;28.36;100.00
49377;BME280;35253;34.688;33.040;2022-08-03T04:21:10;100110.13;;;28.40;100.00
49377;BME280;35253;34.688;33.040;2022-08-03T04:23:42;100122.09;;;28.52;100.00
49377;BME280;35253;34.688;33.040;2022-08-03T04:26:11;100117.63;;;28.58;100.00
49377;BME280;35253;34.688;33.040;2022-08-03T04:28:42;100115.25;;;28.68;100.00
49377;BME280;35253;34.688;33.040;2022-08-03T04:31:11;100127.28;;;28.67;100.00
49377;BME280;35253;34.688;33.040;2022-08-03T04:33:38;100127.50;;;28.72;100.00
49377;BME280;35253;34.688;33.040;2022-08-03T04:36:07;100125.44;;;28.61;100.00
49377;BME280;35253;34.688;33.040;2022-08-03T04:38:39;100136.50;;;28.48;100.00
49377;BME280;35253;34.688;33.040;2022-08-03T04:41:09;100143.63;;;28.49;100.00
49377;BME280;35253;34.688;33.040;2022-08-03T04:43:35;100146.47;;;28.67;100.00
49377;BME280;35253;34.688;33.040;2022-08-03T04:46:06;100143.13;;;28.27;100.00
49377;BME280;35253;34.688;33.040;2022-08-03T04:48:33;100156.06;;;28.00;100.00
49377;BME280;35253;34.688;33.040;2022-08-03T04:50:59;100159.84;;;28.12;100.00
49377;BME280;35253;34.688;33.040;2022-08-03T04:53:29;100153.81;;;28.42;100.00
49377;BME280;35253;34.688;33.040;2022-08-03T04:55:54;100153.28;;;28.58;100.00
49377;BME280;35253;34.688;33.040;2022-08-03T04:58:20;100152.94;;;28.48;100.00
49377;BME280;35253;34.688;33.040;2022-08-03T05:00:46;100149.94;;;28.56;100.00
49377;BME280;35253;34.688;33.040;2022-08-03T05:03:15;100150.34;;;28.59;100.00
49377;BME280;35253;34.688;33.040;2022-08-03T05:05:41;100153.38;;;28.45;100.00
49377;BME280;35253;34.688;33.040;2022-08-03T05:08:06;100142.69;;;28.68;100.00
49377;BME280;35253;34.688;33.040;2022-08-03T05:10:32;100151.13;;;28.66;100.00
49377;BME280;35253;34.688;33.040;2022-08-03T05:12:58;100151.34;;;28.72;100.00
49377;BME280;35253;34.688;33.040;2022-08-03T05:15:23;100154.56;;;28.55;100.00
49377;BME280;35253;34.688;33.040;2022-08-03T05:17:49;100150.28;;;28.73;100.00
49377;BME280;35253;34.688;33.040;2022-08-03T05:20:15;100150.28;;;28.66;100.00
49377;BME280;35253;34.688;33.040;2022-08-03T05:22:40;100152.59;;;28.69;100.00
49377;BME280;35253;34.688;33.040;2022-08-03T05:25:06;100159.66;;;28.52;100.00
49377;BME280;35253;34.688;33.040;2022-08-03T05:27:32;100160.28;;;28.54;100.00
49377;BME280;35253;34.688;33.040;2022-08-03T05:29:58;100164.84;;;29.04;100.00
49377;BME280;35253;34.688;33.040;2022-08-03T05:32:23;100165.44;;;28.75;100.00
49377;BME280;35253;34.688;33.040;2022-08-03T05:34:49;100174.38;;;28.57;100.00
49377;BME280;35253;34.688;33.040;2022-08-03T05:37:15;100171.44;;;28.59;100.00
49377;BME280;35253;34.688;33.040;2022-08-03T05:39:40;100168.19;;;28.75;100.00
49377;BME280;35253;34.688;33.040;2022-08-03T05:42:06;100170.84;;;28.88;100.00
49377;BME280;35253;34.688;33.040;2022-08-03T05:44:32;100173.91;;;28.67;100.00
49377;BME280;35253;34.688;33.040;2022-08-03T05:46:58;100172.44;;;29.02;100.00
49377;BME280;35253;34.688;33.040;2022-08-03T05:49:24;100178.97;;;28.70;100.00
49377;BME280;35253;34.688;33.040;2022-08-03T05:51:49;100180.00;;;29.07;100.00
49377;BME280;35253;34.688;33.040;2022-08-03T05:54:15;100173.88;;;28.80;100.00
49377;BME280;35253;34.688;33.040;2022-08-03T05:56:41;100176.88;;;28.72;100.00
49377;BME280;35253;34.688;33.040;2022-08-03T05:59:06;100182.00;;;28.93;100.00
49377;BME280;35253;34.688;33.040;2022-08-03T06:01:32;100175.25;;;29.21;100.00
49377;BME280;35253;34.688;33.040;2022-08-03T06:03:58;100178.72;;;29.09;100.00
49377;BME280;35253;34.688;33.040;2022-08-03T06:06:24;100176.03;;;29.34;100.00
49377;BME280;35253;34.688;33.040;2022-08-03T06:08:50;100179.44;;;29.23;100.00
49377;BME280;35253;34.688;33.040;2022-08-03T06:11:15;100180.59;;;29.40;100.00
49377;BME280;35253;34.688;33.040;2022-08-03T06:13:42;100166.25;;;29.81;100.00
49377;BME280;35253;34.688;33.040;2022-08-03T06:16:08;100166.44;;;30.05;100.00
49377;BME280;35253;34.688;33.040;2022-08-03T06:18:34;100177.47;;;29.62;100.00
49377;BME280;35253;34.688;33.040;2022-08-03T06:21:01;100192.88;;;29.06;100.00
49377;BME280;35253;34.688;33.040;2022-08-03T06:23:27;100200.16;;;29.26;100.00
49377;BME280;35253;34.688;33.040;2022-08-03T06:25:52;100197.03;;;29.47;100.00
49377;BME280;35253;34.688;33.040;2022-08-03T06:28:18;100192.63;;;29.64;100.00
49377;BME280;35253;34.688;33.040;2022-08-03T06:30:44;100197.38;;;29.57;100.00
49377;BME280;35253;34.688;33.040;2022-08-03T06:33:10;100194.19;;;29.78;100.00
49377;BME280;35253;34.688;33.040;2022-08-03T06:35:37;100188.44;;;30.05;100.00
49377;BME280;35253;34.688;33.040;2022-08-03T06:38:02;100188.72;;;30.15;100.00
49377;BME280;35253;34.688;33.040;2022-08-03T06:40:28;100189.81;;;29.95;100.00
49377;BME280;35253;34.688;33.040;2022-08-03T06:42:57;100189.81;;;29.95;100.00
49377;BME280;35253;34.688;33.040;2022-08-03T06:45:23;100191.09;;;30.77;100.00
49377;BME280;35253;34.688;33.040;2022-08-03T06:48:08;100193.47;;;31.04;100.00
49377;BME280;35253;34.688;33.040;2022-08-03T06:50:35;100188.81;;;31.57;100.00
49377;BME280;35253;34.688;33.040;2022-08-03T06:53:03;100184.47;;;31.85;100.00
49377;BME280;35253;34.688;33.040;2022-08-03T06:55:29;100180.97;;;32.01;100.00
49377;BME280;35253;34.688;33.040;2022-08-03T06:57:55;100182.03;;;32.23;100.00
49377;BME280;35253;34.688;33.040;2022-08-03T07:00:21;100196.78;;;31.36;100.00
49377;BME280;35253;34.688;33.040;2022-08-03T07:02:47;100193.03;;;30.59;100.00
49377;BME280;35253;34.688;33.040;2022-08-03T07:05:13;100194.38;;;30.02;100.00
49377;BME280;35253;34.688;33.040;2022-08-03T07:07:39;100202.31;;;30.46;100.00
49377;BME280;35253;34.688;33.040;2022-08-03T07:10:06;100203.69;;;30.55;100.00
49377;BME280;35253;34.688;33.040;2022-08-03T07:12:32;100205.41;;;31.27;100.00
49377;BME280;35253;34.688;33.040;2022-08-03T07:14:59;100204.50;;;31.04;100.00
49377;BME280;35253;34.688;33.040;2022-08-03T07:17:25;100198.78;;;31.17;100.00
49377;BME280;35253;34.688;33.040;2022-08-03T07:19:51;100204.84;;;31.60;100.00
49377;BME280;35253;34.688;33.040;2022-08-03T07:22:17;100191.53;;;31.92;100.00
49377;BME280;35253;34.688;33.040;2022-08-03T07:24:42;100193.81;;;31.84;100.00
49377;BME280;35253;34.688;33.040;2022-08-03T07:27:09;100184.63;;;31.66;100.00
49377;BME280;35253;34.688;33.040;2022-08-03T07:29:35;100184.34;;;32.03;100.00
49377;BME280;35253;34.688;33.040;2022-08-03T07:32:03;100187.94;;;32.15;100.00
49377;BME280;35253;34.688;33.040;2022-08-03T07:34:29;100188.63;;;32.34;100.00
49377;BME280;35253;34.688;33.040;2022-08-03T07:36:55;100179.31;;;32.51;100.00
49377;BME280;35253;34.688;33.040;2022-08-03T07:39:21;100174.28;;;32.48;100.00
49377;BME280;35253;34.688;33.040;2022-08-03T07:41:46;100176.78;;;31.87;100.00
49377;BME280;35253;34.688;33.040;2022-08-03T07:44:14;100186.59;;;32.29;100.00
49377;BME280;35253;34.688;33.040;2022-08-03T07:46:40;100180.47;;;31.22;100.00
49377;BME280;35253;34.688;33.040;2022-08-03T07:49:06;100184.69;;;31.48;100.00
49377;BME280;35253;34.688;33.040;2022-08-03T07:51:31;100189.22;;;30.89;100.00
49377;BME280;35253;34.688;33.040;2022-08-03T07:53:57;100195.25;;;30.68;100.00
49377;BME280;35253;34.688;33.040;2022-08-03T07:56:25;100191.72;;;30.79;100.00
49377;BME280;35253;34.688;33.040;2022-08-03T07:58:51;100180.78;;;31.03;100.00
49377;BME280;35253;34.688;33.040;2022-08-03T08:01:17;100179.78;;;31.50;100.00
49377;BME280;35253;34.688;33.040;2022-08-03T08:03:47;100183.75;;;31.54;100.00
49377;BME280;35253;34.688;33.040;2022-08-03T08:06:13;100189.69;;;31.16;100.00
49377;BME280;35253;34.688;33.040;2022-08-03T08:08:40;100186.25;;;30.91;100.00
49377;BME280;35253;34.688;33.040;2022-08-03T08:11:05;100189.97;;;30.97;100.00
49377;BME280;35253;34.688;33.040;2022-08-03T08:13:31;100183.78;;;31.01;100.00
49377;BME280;35253;34.688;33.040;2022-08-03T08:15:57;100187.94;;;31.68;100.00
49377;BME280;35253;34.688;33.040;2022-08-03T08:18:23;100189.25;;;32.01;100.00
49377;BME280;35253;34.688;33.040;2022-08-03T08:20:49;100184.25;;;31.74;100.00
49377;BME280;35253;34.688;33.040;2022-08-03T08:23:15;100182.69;;;31.79;100.00
49377;BME280;35253;34.688;33.040;2022-08-03T08:25:48;100173.19;;;31.98;100.00
49377;BME280;35253;34.688;33.040;2022-08-03T08:28:19;100168.47;;;32.22;100.00
49377;BME280;35253;34.688;33.040;2022-08-03T08:30:47;100170.72;;;32.36;100.00
49377;BME280;35253;34.688;33.040;2022-08-03T08:33:13;100166.88;;;32.37;100.00
49377;BME280;35253;34.688;33.040;2022-08-03T08:35:39;100168.50;;;32.50;100.00
49377;BME280;35253;34.688;33.040;2022-08-03T08:38:04;100167.28;;;32.57;100.00
49377;BME280;35253;34.688;33.040;2022-08-03T08:40:30;100165.00;;;32.66;100.00
49377;BME280;35253;34.688;33.040;2022-08-03T08:42:56;100169.38;;;32.39;100.00
49377;BME280;35253;34.688;33.040;2022-08-03T08:45:22;100156.88;;;32.48;100.00
49377;BME280;35253;34.688;33.040;2022-08-03T08:47:48;100167.06;;;32.47;100.00
49377;BME280;35253;34.688;33.040;2022-08-03T08:50:19;100170.53;;;32.14;100.00
49377;BME280;35253;34.688;33.040;2022-08-03T08:52:48;100167.44;;;32.11;100.00
49377;BME280;35253;34.688;33.040;2022-08-03T08:55:18;100167.34;;;31.83;100.00
49377;BME280;35253;34.688;33.040;2022-08-03T08:57:49;100167.09;;;31.61;100.00
49377;BME280;35253;34.688;33.040;2022-08-03T09:00:17;100161.94;;;31.64;100.00
49377;BME280;35253;34.688;33.040;2022-08-03T09:02:44;100173.34;;;31.68;100.00
49377;BME280;35253;34.688;33.040;2022-08-03T09:05:15;100162.50;;;32.13;100.00
49377;BME280;35253;34.688;33.040;2022-08-03T09:07:42;100160.47;;;32.20;100.00
49377;BME280;35253;34.688;33.040;2022-08-03T09:10:11;100167.56;;;32.16;100.00
49377;BME280;35253;34.688;33.040;2022-08-03T09:12:45;100164.53;;;32.06;100.00
49377;BME280;35253;34.688;33.040;2022-08-03T09:15:31;100168.72;;;32.08;100.00
49377;BME280;35253;34.688;33.040;2022-08-03T09:17:59;100169.63;;;31.62;100.00
49377;BME280;35253;34.688;33.040;2022-08-03T09:20:28;100177.28;;;31.84;100.00
49377;BME280;35253;34.688;33.040;2022-08-03T09:23:07;100173.53;;;32.25;100.00
49377;BME280;35253;34.688;33.040;2022-08-03T09:25:39;100166.63;;;32.39;100.00
49377;BME280;35253;34.688;33.040;2022-08-03T09:28:09;100173.31;;;32.14;100.00
49377;BME280;35253;34.688;33.040;2022-08-03T09:30:41;100173.53;;;32.25;100.00
49377;BME280;35253;34.688;33.040;2022-08-03T09:33:08;100173.44;;;32.48;100.00
49377;BME280;35253;34.688;33.040;2022-08-03T09:35:47;100176.03;;;32.66;100.00
49377;BME280;35253;34.688;33.040;2022-08-03T09:38:16;100183.91;;;32.34;100.00
49377;BME280;35253;34.688;33.040;2022-08-03T09:40:43;100182.03;;;32.23;100.00
49377;BME280;35253;34.688;33.040;2022-08-03T09:43:09;100178.66;;;32.21;100.00
49377;BME280;35253;34.688;33.040;2022-08-03T09:45:39;100184.56;;;32.25;100.00
49377;BME280;35253;34.688;33.040;2022-08-03T09:48:24;100181.25;;;31.76;100.00
49377;BME280;35253;34.688;33.040;2022-08-03T09:50:52;100180.06;;;32.35;100.00
49377;BME280;35253;34.688;33.040;2022-08-03T09:53:19;100186.09;;;32.60;100.00
49377;BME280;35253;34.688;33.040;2022-08-03T09:55:51;100186.59;;;32.06;100.00
49377;BME280;35253;34.688;33.040;2022-08-03T09:58:19;100178.88;;;32.43;100.00
49377;BME280;35253;34.688;33.040;2022-08-03T10:03:20;100179.06;;;32.25;100.00
49377;BME280;35253;34.688;33.040;2022-08-03T10:05:46;100166.84;;;32.09;100.00
49377;BME280;35253;34.688;33.040;2022-08-03T10:08:17;100173.47;;;32.36;100.00
49377;BME280;35253;34.688;33.040;2022-08-03T10:10:44;100181.84;;;31.90;100.00
49377;BME280;35253;34.688;33.040;2022-08-03T10:13:13;100178.81;;;32.14;100.00
49377;BME280;35253;34.688;33.040;2022-08-03T10:15:39;100170.44;;;32.49;100.00
49377;BME280;35253;34.688;33.040;2022-08-03T10:18:06;100165.53;;;32.80;100.00
49377;BME280;35253;34.688;33.040;2022-08-03T10:20:36;100171.22;;;32.73;100.00
49377;BME280;35253;34.688;33.040;2022-08-03T10:23:03;100162.19;;;32.78;100.00
49377;BME280;35253;34.688;33.040;2022-08-03T10:25:30;100174.44;;;32.70;100.00
49377;BME280;35253;34.688;33.040;2022-08-03T10:28:01;100164.50;;;32.69;100.00
49377;BME280;35253;34.688;33.040;2022-08-03T10:30:31;100157.66;;;32.72;100.00
49377;BME280;35253;34.688;33.040;2022-08-03T10:33:17;100159.84;;;32.58;100.00
49377;BME280;35253;34.688;33.040;2022-08-03T10:35:44;100156.31;;;32.34;100.00
49377;BME280;35253;34.688;33.040;2022-08-03T10:38:18;100159.03;;;32.86;100.00
49377;BME280;35253;34.688;33.040;2022-08-03T10:40:44;100158.22;;;33.19;100.00
49377;BME280;35253;34.688;33.040;2022-08-03T10:43:18;100154.22;;;32.65;100.00
49377;BME280;35253;34.688;33.040;2022-08-03T10:45:45;100164.44;;;33.42;100.00
49377;BME280;35253;34.688;33.040;2022-08-03T10:48:12;100161.38;;;32.94;100.00
49377;BME280;35253;34.688;33.040;2022-08-03T10:50:38;100168.22;;;32.91;100.00
49377;BME280;35253;34.688;33.040;2022-08-03T10:53:06;100156.09;;;33.09;100.00
49377;BME280;35253;34.688;33.040;2022-08-03T10:55:34;100160.19;;;32.90;100.00
49377;BME280;35253;34.688;33.040;2022-08-03T11:04:24;100160.06;;;32.68;100.00
49377;BME280;35253;34.688;33.040;2022-08-03T11:09:46;100156.56;;;32.61;100.00
49377;BME280;35253;34.688;33.040;2022-08-03T11:12:27;100156.31;;;32.74;100.00
49377;BME280;35253;34.688;33.040;2022-08-03T11:14:54;100163.44;;;32.58;100.00
49377;BME280;35253;34.688;33.040;2022-08-03T11:17:20;100162.34;;;33.16;100.00
49377;BME280;35253;34.688;33.040;2022-08-03T11:19:51;100163.44;;;32.87;100.00
49377;BME280;35253;34.688;33.040;2022-08-03T11:22:19;100159.91;;;33.36;100.00
49377;BME280;35253;34.688;33.040;2022-08-03T11:30:05;100171.69;;;32.70;100.00
49377;BME280;35253;34.688;33.040;2022-08-03T11:32:52;100161.69;;;32.81;100.00
49377;BME280;35253;34.688;33.040;2022-08-03T11:35:33;100173.81;;;32.51;100.00
49377;BME280;35253;34.688;33.040;2022-08-03T11:38:09;100162.25;;;32.54;100.00
49377;BME280;35253;34.688;33.040;2022-08-03T11:40:45;100159.81;;;32.70;100.00
49377;BME280;35253;34.688;33.040;2022-08-03T11:45:57;100159.00;;;32.57;100.00
49377;BME280;35253;34.688;33.040;2022-08-03T11:48:26;100157.91;;;32.58;100.00
49377;BME280;35253;34.688;33.040;2022-08-03T11:50:52;100157.97;;;32.75;100.00
49377;BME280;35253;34.688;33.040;2022-08-03T11:53:18;100165.72;;;32.90;100.00
49377;BME280;35253;34.688;33.040;2022-08-03T11:55:46;100164.50;;;32.69;100.00
49377;BME280;35253;34.688;33.040;2022-08-03T11:58:21;100168.97;;;32.58;100.00
49377;BME280;35253;34.688;33.040;2022-08-03T12:00:48;100152.38;;;32.70;100.00
49377;BME280;35253;34.688;33.040;2022-08-03T12:03:19;100146.09;;;32.75;100.00
49377;BME280;35253;34.688;33.040;2022-08-03T12:05:50;100162.31;;;32.71;100.00
49377;BME280;35253;34.688;33.040;2022-08-03T12:08:37;100160.75;;;33.20;100.00
49377;BME280;35253;34.688;33.040;2022-08-03T12:11:04;100158.31;;;32.50;100.00
49377;BME280;35253;34.688;33.040;2022-08-03T12:13:49;100160.09;;;32.16;100.00
49377;BME280;35253;34.688;33.040;2022-08-03T12:16:24;100154.22;;;32.65;100.00
49377;BME280;35253;34.688;33.040;2022-08-03T12:18:59;100147.78;;;32.76;100.00
49377;BME280;35253;34.688;33.040;2022-08-03T12:21:26;100156.31;;;32.34;100.00
49377;BME280;35253;34.688;33.040;2022-08-03T12:23:56;100149.78;;;32.63;100.00
49377;BME280;35253;34.688;33.040;2022-08-03T12:26:24;100143.59;;;32.73;100.00
49377;BME280;35253;34.688;33.040;2022-08-03T12:28:51;100144.16;;;32.18;100.00
49377;BME280;35253;34.688;33.040;2022-08-03T12:31:17;100156.25;;;32.57;100.00
49377;BME280;35253;34.688;33.040;2022-08-03T12:34:00;100138.16;;;32.50;100.00
49377;BME280;35253;34.688;33.040;2022-08-03T12:36:32;100141.41;;;32.18;100.00
49377;BME280;35253;34.688;33.040;2022-08-03T12:39:05;100140.78;;;32.05;100.00
49377;BME280;35253;34.688;33.040;2022-08-03T12:41:36;100139.59;;;32.12;100.00
49377;BME280;35253;34.688;33.040;2022-08-03T12:44:07;100148.50;;;32.03;100.00
49377;BME280;35253;34.688;33.040;2022-08-03T12:46:36;100139.03;;;32.10;100.00
49377;BME280;35253;34.688;33.040;2022-08-03T12:49:05;100140.28;;;32.08;100.00
49377;BME280;35253;34.688;33.040;2022-08-03T12:51:33;100138.28;;;32.43;100.00
49377;BME280;35253;34.688;33.040;2022-08-03T12:53:59;100141.34;;;32.58;100.00
49377;BME280;35253;34.688;33.040;2022-08-03T12:56:25;100139.38;;;31.91;100.00
49377;BME280;35253;34.688;33.040;2022-08-03T12:58:51;100144.34;;;31.65;100.00
49377;BME280;35253;34.688;33.040;2022-08-03T13:01:18;100125.56;;;32.14;100.00
49377;BME280;35253;34.688;33.040;2022-08-03T13:03:47;100130.69;;;32.22;100.00